メインページ
METAR-TAF:

METAR-TAF

空港 :

マイアミ, フロリダ州, アメリカ合衆国

マイアミ国際空港

緯度: 25-47-26N, 経度: 080-18-59W, 海抜: 3m

現時点の気象観測

当レポートは25分前の22:53(UTC)に作成
南/南東の風 7kt
気温 31°C
湿度 66%
気圧 1016 hPa
視程: 16.1km
高度3200ftの雲は散在している, 積乱雲.
高度7000ftの雲は散在している
高度25000ftの雲は散在している

METAR: KMIA 272253Z COR 15007KT 10SM SCT032CB SCT070 SCT250 31/24 A3001 RMK AO2 RAB2156E07B36E46 SLP164 CB SW MOV STNRY P0000 T03110239

時間: 19:18 (23:18 UTC)

予報

当レポートは2時間7分前の21:11(UTC)に作成
予報は27日の 21時(UTC)から 28日の 18時(UTC)まで有効
南東の風 10kt
視程: 10km
高度3500ftの雲は散在している
高度9000ftの雲は散在している
28日の 0100時(UTC)から
変向風 3kt
視程: 10km
高度3000ftの雲はほとんどない
28日の 1500時(UTC)から
西/南西の風 7kt
視程: 10km
高度25000ftの雲はほとんどない

TAF: KMIA 272111Z 2721/2818 13010KT P6SM SCT035 SCT090 FM280100 VRB03KT P6SM FEW030 FM281500 24007KT P6SM FEW250

4,000以上の空港の気象観測と天気予報(METAR報とTAF報)

利用可能な観測所は地図上に黄色い丸と赤い丸で示す。

丸の上にカーソルを重ねると観測所名を参照できる。

次にクリックすると気象観測と天気予報を参照できる。

マップの切り替え:黒色「×」印の緑ボタンをクリックして拡大、「-」印の緑ボタンをクリックして縮小、緑色の三角印をクリックして隣りの地図に切り替え


METAR-TAF: